DAUI

Details ICAO DAUI (INZ)
Name IN SALAH
Region Algeria
Timezone Africa/Algiers (UTC+1.0)
Plans Departing 36
Arriving 44
Stats Elevation 896 ft / 273 m (AMSL)
Location 27.251000° 2.512020°
Runways 1
Magnetic Variation 0.646° E
Sunrise 2020-03-30 05:43:37 UTC / 2020-03-30 06:43:37 Local
Sunset 2020-03-30 18:07:20 UTC / 2020-03-30 19:07:20 Local
Advertisement - Login to hide

Runways

ID Width Length Bearing (true/mag) Surface Threshold Overrun Markings Lighting
05 148 ft / 45 m 9,827 ft / 2,995 m 50.81° / 50.17° ASPHALT 0 ft / 0 m 150 ft / 46 m APP EDGE THRESHOLD
23 148 ft / 45 m 9,827 ft / 2,995 m 230.82° / 230.18° ASPHALT 0 ft / 0 m 150 ft / 46 m APP EDGE THRESHOLD

Map

Weather


0- 5 10 15 20 25 30 35+ Temperature / °C

Clouds and Precipitation
Forecast for 2020-03-30 06:00 UTC. Updated 14 minutes ago

Ground ~20,000 ft ~40,000 ft Winds

METAR

DAUI 300300Z 05006KT CAVOK 16/05 Q1013

TAF

TAF DAUI 292300Z 3000/3024 04010KT CAVOK PROB30 TEMPO 3008/3011 06022KT 5000 DRSA BECMG 3016/3019 VRB02KT

Frequencies

Tower 118.10 MHz
Tower 119.70 MHz
Warning: Do not use this data for real-world aviation or navigation. No guarantee of current accuracy is given.